sensor_id;sensor_type;location;lat;lon;timestamp;P1;durP1;ratioP1;P2;durP2;ratioP2
18857;SDS011;9558;50.178;8.370;2023-11-19T00:01:09;19.88;;;3.63;;
18857;SDS011;9558;50.178;8.370;2023-11-19T00:03:56;37.13;;;4.65;;
18857;SDS011;9558;50.178;8.370;2023-11-19T00:09:29;7.22;;;3.25;;
18857;SDS011;9558;50.178;8.370;2023-11-19T00:12:16;17.40;;;4.25;;
18857;SDS011;9558;50.178;8.370;2023-11-19T00:15:04;15.18;;;4.47;;
18857;SDS011;9558;50.178;8.370;2023-11-19T00:17:53;11.43;;;4.22;;
18857;SDS011;9558;50.178;8.370;2023-11-19T00:20:40;16.98;;;4.85;;
18857;SDS011;9558;50.178;8.370;2023-11-19T00:23:26;41.53;;;5.30;;
18857;SDS011;9558;50.178;8.370;2023-11-19T00:26:13;18.08;;;4.07;;
18857;SDS011;9558;50.178;8.370;2023-11-19T00:29:00;32.58;;;5.20;;
18857;SDS011;9558;50.178;8.370;2023-11-19T00:31:47;34.38;;;5.25;;
18857;SDS011;9558;50.178;8.370;2023-11-19T00:34:35;16.27;;;5.07;;
18857;SDS011;9558;50.178;8.370;2023-11-19T00:37:22;8.95;;;3.85;;
18857;SDS011;9558;50.178;8.370;2023-11-19T00:42:56;11.82;;;4.13;;
18857;SDS011;9558;50.178;8.370;2023-11-19T00:48:29;6.25;;;3.60;;
18857;SDS011;9558;50.178;8.370;2023-11-19T00:51:18;15.75;;;5.20;;
18857;SDS011;9558;50.178;8.370;2023-11-19T00:54:05;12.38;;;4.65;;
18857;SDS011;9558;50.178;8.370;2023-11-19T00:56:52;7.97;;;4.47;;
18857;SDS011;9558;50.178;8.370;2023-11-19T00:59:41;18.40;;;5.20;;
18857;SDS011;9558;50.178;8.370;2023-11-19T01:02:28;16.63;;;4.60;;
18857;SDS011;9558;50.178;8.370;2023-11-19T01:08:02;7.43;;;3.70;;
18857;SDS011;9558;50.178;8.370;2023-11-19T01:10:49;8.88;;;3.95;;
18857;SDS011;9558;50.178;8.370;2023-11-19T01:16:23;5.38;;;3.53;;
18857;SDS011;9558;50.178;8.370;2023-11-19T01:21:56;6.30;;;2.35;;
18857;SDS011;9558;50.178;8.370;2023-11-19T01:27:31;5.40;;;3.05;;
18857;SDS011;9558;50.178;8.370;2023-11-19T01:30:19;4.43;;;2.63;;
18857;SDS011;9558;50.178;8.370;2023-11-19T01:35:54;8.10;;;3.00;;
18857;SDS011;9558;50.178;8.370;2023-11-19T01:38:44;6.45;;;3.08;;
18857;SDS011;9558;50.178;8.370;2023-11-19T01:44:22;11.25;;;3.55;;
18857;SDS011;9558;50.178;8.370;2023-11-19T01:49:55;7.95;;;3.63;;
18857;SDS011;9558;50.178;8.370;2023-11-19T01:52:43;32.72;;;4.10;;
18857;SDS011;9558;50.178;8.370;2023-11-19T01:58:18;46.95;;;4.53;;
18857;SDS011;9558;50.178;8.370;2023-11-19T02:01:05;69.00;;;4.78;;
18857;SDS011;9558;50.178;8.370;2023-11-19T02:03:52;77.70;;;4.90;;
18857;SDS011;9558;50.178;8.370;2023-11-19T02:09:27;104.38;;;5.10;;
18857;SDS011;9558;50.178;8.370;2023-11-19T02:12:15;71.43;;;5.45;;
18857;SDS011;9558;50.178;8.370;2023-11-19T02:15:04;124.55;;;7.22;;
18857;SDS011;9558;50.178;8.370;2023-11-19T02:17:51;78.07;;;5.72;;
18857;SDS011;9558;50.178;8.370;2023-11-19T02:23:26;24.67;;;4.75;;
18857;SDS011;9558;50.178;8.370;2023-11-19T02:26:14;12.40;;;3.80;;
18857;SDS011;9558;50.178;8.370;2023-11-19T02:29:10;64.68;;;4.78;;
18857;SDS011;9558;50.178;8.370;2023-11-19T02:31:58;11.48;;;4.22;;
18857;SDS011;9558;50.178;8.370;2023-11-19T02:37:31;7.35;;;3.60;;
18857;SDS011;9558;50.178;8.370;2023-11-19T02:40:19;10.20;;;3.67;;
18857;SDS011;9558;50.178;8.370;2023-11-19T02:43:09;7.38;;;3.38;;
18857;SDS011;9558;50.178;8.370;2023-11-19T02:48:44;4.50;;;2.88;;
18857;SDS011;9558;50.178;8.370;2023-11-19T02:51:31;4.78;;;2.58;;
18857;SDS011;9558;50.178;8.370;2023-11-19T02:54:18;6.32;;;3.05;;
18857;SDS011;9558;50.178;8.370;2023-11-19T02:57:06;4.97;;;2.78;;
18857;SDS011;9558;50.178;8.370;2023-11-19T02:59:55;4.25;;;2.33;;
18857;SDS011;9558;50.178;8.370;2023-11-19T03:05:31;9.80;;;3.00;;
18857;SDS011;9558;50.178;8.370;2023-11-19T03:11:04;4.03;;;2.55;;
18857;SDS011;9558;50.178;8.370;2023-11-19T03:16:37;8.93;;;2.90;;
18857;SDS011;9558;50.178;8.370;2023-11-19T03:22:12;3.10;;;1.98;;
18857;SDS011;9558;50.178;8.370;2023-11-19T03:25:00;4.18;;;2.67;;
18857;SDS011;9558;50.178;8.370;2023-11-19T03:27:46;5.20;;;2.72;;
18857;SDS011;9558;50.178;8.370;2023-11-19T03:33:20;5.53;;;2.83;;
18857;SDS011;9558;50.178;8.370;2023-11-19T03:38:55;2.45;;;1.63;;
18857;SDS011;9558;50.178;8.370;2023-11-19T03:44:32;2.80;;;1.60;;
18857;SDS011;9558;50.178;8.370;2023-11-19T03:50:06;6.57;;;2.47;;
18857;SDS011;9558;50.178;8.370;2023-11-19T03:52:55;3.40;;;2.15;;
18857;SDS011;9558;50.178;8.370;2023-11-19T03:55:42;3.88;;;2.47;;
18857;SDS011;9558;50.178;8.370;2023-11-19T04:01:15;3.67;;;2.22;;
18857;SDS011;9558;50.178;8.370;2023-11-19T04:04:02;4.82;;;2.47;;
18857;SDS011;9558;50.178;8.370;2023-11-19T04:06:49;4.40;;;2.05;;
18857;SDS011;9558;50.178;8.370;2023-11-19T04:12:24;3.80;;;2.15;;
18857;SDS011;9558;50.178;8.370;2023-11-19T04:15:11;2.33;;;1.83;;
18857;SDS011;9558;50.178;8.370;2023-11-19T04:17:58;2.15;;;1.40;;
18857;SDS011;9558;50.178;8.370;2023-11-19T04:23:31;3.55;;;1.85;;
18857;SDS011;9558;50.178;8.370;2023-11-19T04:29:06;4.03;;;2.10;;
18857;SDS011;9558;50.178;8.370;2023-11-19T04:31:54;4.43;;;2.38;;
18857;SDS011;9558;50.178;8.370;2023-11-19T04:34:41;2.88;;;1.80;;
18857;SDS011;9558;50.178;8.370;2023-11-19T04:40:14;5.65;;;1.77;;
18857;SDS011;9558;50.178;8.370;2023-11-19T04:43:04;3.00;;;1.85;;
18857;SDS011;9558;50.178;8.370;2023-11-19T04:45:52;5.63;;;2.40;;
18857;SDS011;9558;50.178;8.370;2023-11-19T04:51:25;3.58;;;1.80;;
18857;SDS011;9558;50.178;8.370;2023-11-19T04:56:59;3.20;;;2.00;;
18857;SDS011;9558;50.178;8.370;2023-11-19T05:02:34;1.75;;;1.05;;
18857;SDS011;9558;50.178;8.370;2023-11-19T05:05:21;1.27;;;0.98;;
18857;SDS011;9558;50.178;8.370;2023-11-19T05:10:54;1.15;;;0.90;;
18857;SDS011;9558;50.178;8.370;2023-11-19T05:16:29;1.23;;;1.10;;
18857;SDS011;9558;50.178;8.370;2023-11-19T05:19:16;1.42;;;1.20;;
18857;SDS011;9558;50.178;8.370;2023-11-19T05:22:03;5.35;;;1.08;;
18857;SDS011;9558;50.178;8.370;2023-11-19T05:24:50;3.72;;;2.13;;
18857;SDS011;9558;50.178;8.370;2023-11-19T05:30:23;1.65;;;1.13;;
18857;SDS011;9558;50.178;8.370;2023-11-19T05:33:11;2.20;;;1.42;;
18857;SDS011;9558;50.178;8.370;2023-11-19T05:35:58;2.40;;;1.40;;
18857;SDS011;9558;50.178;8.370;2023-11-19T05:41:31;1.80;;;1.05;;
18857;SDS011;9558;50.178;8.370;2023-11-19T05:47:05;1.63;;;1.40;;
18857;SDS011;9558;50.178;8.370;2023-11-19T05:49:53;1.58;;;1.27;;
18857;SDS011;9558;50.178;8.370;2023-11-19T05:52:40;2.83;;;1.58;;
18857;SDS011;9558;50.178;8.370;2023-11-19T05:55:27;3.25;;;1.65;;
18857;SDS011;9558;50.178;8.370;2023-11-19T05:58:14;3.00;;;2.08;;
18857;SDS011;9558;50.178;8.370;2023-11-19T06:01:01;3.15;;;1.83;;
18857;SDS011;9558;50.178;8.370;2023-11-19T06:03:48;3.90;;;2.00;;
18857;SDS011;9558;50.178;8.370;2023-11-19T06:06:36;8.60;;;2.30;;
18857;SDS011;9558;50.178;8.370;2023-11-19T06:09:24;3.17;;;1.88;;
18857;SDS011;9558;50.178;8.370;2023-11-19T06:12:11;2.80;;;1.48;;
18857;SDS011;9558;50.178;8.370;2023-11-19T06:14:59;2.97;;;1.95;;
18857;SDS011;9558;50.178;8.370;2023-11-19T06:17:47;3.55;;;2.10;;
18857;SDS011;9558;50.178;8.370;2023-11-19T06:20:33;2.80;;;1.63;;
18857;SDS011;9558;50.178;8.370;2023-11-19T06:23:22;2.78;;;1.50;;
18857;SDS011;9558;50.178;8.370;2023-11-19T06:26:08;2.50;;;1.70;;
18857;SDS011;9558;50.178;8.370;2023-11-19T06:31:42;2.45;;;1.55;;
18857;SDS011;9558;50.178;8.370;2023-11-19T06:34:28;4.35;;;1.85;;
18857;SDS011;9558;50.178;8.370;2023-11-19T06:37:15;5.72;;;2.90;;
18857;SDS011;9558;50.178;8.370;2023-11-19T06:40:03;6.38;;;3.20;;
18857;SDS011;9558;50.178;8.370;2023-11-19T06:42:51;16.55;;;8.98;;
18857;SDS011;9558;50.178;8.370;2023-11-19T06:45:38;4.90;;;2.20;;
18857;SDS011;9558;50.178;8.370;2023-11-19T06:48:25;6.60;;;2.92;;
18857;SDS011;9558;50.178;8.370;2023-11-19T06:51:12;5.15;;;2.47;;
18857;SDS011;9558;50.178;8.370;2023-11-19T06:53:59;3.53;;;2.45;;
18857;SDS011;9558;50.178;8.370;2023-11-19T06:56:48;4.90;;;2.20;;
18857;SDS011;9558;50.178;8.370;2023-11-19T06:59:35;3.72;;;2.55;;
18857;SDS011;9558;50.178;8.370;2023-11-19T07:02:21;5.07;;;2.03;;
18857;SDS011;9558;50.178;8.370;2023-11-19T07:05:08;7.25;;;2.35;;
18857;SDS011;9558;50.178;8.370;2023-11-19T07:07:55;5.43;;;2.60;;
18857;SDS011;9558;50.178;8.370;2023-11-19T07:10:42;5.45;;;3.03;;
18857;SDS011;9558;50.178;8.370;2023-11-19T07:13:30;6.00;;;2.38;;
18857;SDS011;9558;50.178;8.370;2023-11-19T07:16:16;5.63;;;3.13;;
18857;SDS011;9558;50.178;8.370;2023-11-19T07:19:03;5.88;;;2.67;;
18857;SDS011;9558;50.178;8.370;2023-11-19T07:21:50;7.00;;;2.33;;
18857;SDS011;9558;50.178;8.370;2023-11-19T07:24:39;4.85;;;1.83;;
18857;SDS011;9558;50.178;8.370;2023-11-19T07:27:26;8.52;;;1.98;;
18857;SDS011;9558;50.178;8.370;2023-11-19T07:30:15;5.13;;;2.50;;
18857;SDS011;9558;50.178;8.370;2023-11-19T07:33:01;8.82;;;1.98;;
18857;SDS011;9558;50.178;8.370;2023-11-19T07:35:49;7.40;;;1.55;;
18857;SDS011;9558;50.178;8.370;2023-11-19T07:38:36;12.52;;;2.22;;
18857;SDS011;9558;50.178;8.370;2023-11-19T07:41:23;20.10;;;2.92;;
18857;SDS011;9558;50.178;8.370;2023-11-19T07:44:10;61.65;;;3.25;;
18857;SDS011;9558;50.178;8.370;2023-11-19T07:46:58;81.00;;;3.15;;
18857;SDS011;9558;50.178;8.370;2023-11-19T07:49:45;69.22;;;3.63;;
18857;SDS011;9558;50.178;8.370;2023-11-19T07:52:32;164.50;;;5.80;;
18857;SDS011;9558;50.178;8.370;2023-11-19T07:55:19;201.27;;;6.97;;
18857;SDS011;9558;50.178;8.370;2023-11-19T07:58:06;100.80;;;4.75;;
18857;SDS011;9558;50.178;8.370;2023-11-19T08:00:53;4.68;;;2.88;;
18857;SDS011;9558;50.178;8.370;2023-11-19T08:03:41;5.93;;;2.67;;
18857;SDS011;9558;50.178;8.370;2023-11-19T08:06:28;4.38;;;2.15;;
18857;SDS011;9558;50.178;8.370;2023-11-19T08:09:15;3.58;;;2.38;;
18857;SDS011;9558;50.178;8.370;2023-11-19T08:12:02;4.32;;;2.25;;
18857;SDS011;9558;50.178;8.370;2023-11-19T08:14:49;2.45;;;1.63;;
18857;SDS011;9558;50.178;8.370;2023-11-19T08:17:36;4.60;;;2.22;;
18857;SDS011;9558;50.178;8.370;2023-11-19T08:20:24;4.55;;;2.08;;
18857;SDS011;9558;50.178;8.370;2023-11-19T08:23:11;54.97;;;4.53;;
18857;SDS011;9558;50.178;8.370;2023-11-19T08:25:58;49.92;;;3.58;;
18857;SDS011;9558;50.178;8.370;2023-11-19T08:28:45;199.15;;;11.35;;
18857;SDS011;9558;50.178;8.370;2023-11-19T08:31:32;18.15;;;7.75;;
18857;SDS011;9558;50.178;8.370;2023-11-19T08:34:19;12.30;;;4.85;;
18857;SDS011;9558;50.178;8.370;2023-11-19T08:37:07;9.52;;;4.57;;
18857;SDS011;9558;50.178;8.370;2023-11-19T08:39:54;14.32;;;6.13;;
18857;SDS011;9558;50.178;8.370;2023-11-19T08:42:41;14.20;;;4.22;;
18857;SDS011;9558;50.178;8.370;2023-11-19T08:45:28;3.72;;;1.67;;
18857;SDS011;9558;50.178;8.370;2023-11-19T08:48:14;5.63;;;1.70;;
18857;SDS011;9558;50.178;8.370;2023-11-19T08:51:01;11.65;;;1.75;;
18857;SDS011;9558;50.178;8.370;2023-11-19T08:53:49;9.68;;;2.33;;
18857;SDS011;9558;50.178;8.370;2023-11-19T08:56:36;8.77;;;1.88;;
18857;SDS011;9558;50.178;8.370;2023-11-19T08:59:24;9.93;;;3.20;;
18857;SDS011;9558;50.178;8.370;2023-11-19T09:02:11;8.70;;;1.95;;
18857;SDS011;9558;50.178;8.370;2023-11-19T09:04:58;9.38;;;2.38;;
18857;SDS011;9558;50.178;8.370;2023-11-19T09:07:44;2.33;;;0.95;;
18857;SDS011;9558;50.178;8.370;2023-11-19T09:10:32;9.80;;;1.98;;
18857;SDS011;9558;50.178;8.370;2023-11-19T09:13:19;6.55;;;1.48;;
18857;SDS011;9558;50.178;8.370;2023-11-19T09:16:06;3.25;;;1.25;;
18857;SDS011;9558;50.178;8.370;2023-11-19T09:18:54;5.38;;;1.10;;
18857;SDS011;9558;50.178;8.370;2023-11-19T09:21:41;5.40;;;1.10;;
18857;SDS011;9558;50.178;8.370;2023-11-19T09:24:27;5.55;;;1.08;;
18857;SDS011;9558;50.178;8.370;2023-11-19T09:27:15;10.32;;;1.48;;
18857;SDS011;9558;50.178;8.370;2023-11-19T09:30:02;3.65;;;1.08;;
18857;SDS011;9558;50.178;8.370;2023-11-19T09:32:50;5.03;;;0.85;;
18857;SDS011;9558;50.178;8.370;2023-11-19T09:35:36;6.78;;;1.02;;
18857;SDS011;9558;50.178;8.370;2023-11-19T09:38:23;4.72;;;1.25;;
18857;SDS011;9558;50.178;8.370;2023-11-19T09:41:10;7.72;;;1.20;;
18857;SDS011;9558;50.178;8.370;2023-11-19T09:44:00;4.80;;;1.08;;
18857;SDS011;9558;50.178;8.370;2023-11-19T09:46:47;10.77;;;1.27;;
18857;SDS011;9558;50.178;8.370;2023-11-19T09:49:34;5.75;;;0.75;;
18857;SDS011;9558;50.178;8.370;2023-11-19T09:52:22;8.20;;;0.95;;
18857;SDS011;9558;50.178;8.370;2023-11-19T09:55:10;5.43;;;1.23;;
18857;SDS011;9558;50.178;8.370;2023-11-19T09:57:57;8.10;;;1.10;;
18857;SDS011;9558;50.178;8.370;2023-11-19T10:00:48;6.07;;;1.13;;
18857;SDS011;9558;50.178;8.370;2023-11-19T10:03:37;7.40;;;0.88;;
18857;SDS011;9558;50.178;8.370;2023-11-19T10:06:25;5.88;;;1.00;;
18857;SDS011;9558;50.178;8.370;2023-11-19T10:09:13;8.50;;;1.45;;
18857;SDS011;9558;50.178;8.370;2023-11-19T10:12:00;8.70;;;0.95;;
18857;SDS011;9558;50.178;8.370;2023-11-19T10:14:47;2.58;;;0.75;;
18857;SDS011;9558;50.178;8.370;2023-11-19T10:17:37;5.38;;;0.75;;
18857;SDS011;9558;50.178;8.370;2023-11-19T10:20:25;6.13;;;1.05;;
18857;SDS011;9558;50.178;8.370;2023-11-19T10:23:12;6.13;;;1.02;;
18857;SDS011;9558;50.178;8.370;2023-11-19T10:26:02;1.38;;;0.40;;
18857;SDS011;9558;50.178;8.370;2023-11-19T10:28:55;5.25;;;0.70;;
18857;SDS011;9558;50.178;8.370;2023-11-19T10:31:43;6.55;;;1.02;;
18857;SDS011;9558;50.178;8.370;2023-11-19T10:34:43;5.78;;;0.75;;
18857;SDS011;9558;50.178;8.370;2023-11-19T10:37:30;8.23;;;0.90;;
18857;SDS011;9558;50.178;8.370;2023-11-19T10:40:17;8.82;;;0.80;;
18857;SDS011;9558;50.178;8.370;2023-11-19T10:43:05;4.93;;;0.80;;
18857;SDS011;9558;50.178;8.370;2023-11-19T10:45:54;4.53;;;0.75;;
18857;SDS011;9558;50.178;8.370;2023-11-19T10:48:54;5.43;;;0.90;;
18857;SDS011;9558;50.178;8.370;2023-11-19T10:51:43;1.88;;;0.55;;
18857;SDS011;9558;50.178;8.370;2023-11-19T10:54:32;7.60;;;0.70;;
18857;SDS011;9558;50.178;8.370;2023-11-19T10:57:21;3.20;;;0.90;;
18857;SDS011;9558;50.178;8.370;2023-11-19T11:00:08;7.10;;;1.00;;
18857;SDS011;9558;50.178;8.370;2023-11-19T11:03:00;6.72;;;1.00;;
18857;SDS011;9558;50.178;8.370;2023-11-19T11:05:48;5.95;;;0.90;;
18857;SDS011;9558;50.178;8.370;2023-11-19T11:08:37;8.63;;;1.05;;
18857;SDS011;9558;50.178;8.370;2023-11-19T11:11:25;3.05;;;1.20;;
18857;SDS011;9558;50.178;8.370;2023-11-19T11:14:12;4.43;;;0.73;;
18857;SDS011;9558;50.178;8.370;2023-11-19T11:17:00;6.72;;;0.73;;
18857;SDS011;9558;50.178;8.370;2023-11-19T11:19:49;7.72;;;1.02;;
18857;SDS011;9558;50.178;8.370;2023-11-19T11:22:39;8.60;;;1.13;;
18857;SDS011;9558;50.178;8.370;2023-11-19T11:25:44;11.15;;;1.00;;
18857;SDS011;9558;50.178;8.370;2023-11-19T11:28:39;9.95;;;1.10;;
18857;SDS011;9558;50.178;8.370;2023-11-19T11:31:36;5.45;;;0.55;;
18857;SDS011;9558;50.178;8.370;2023-11-19T11:34:36;8.15;;;1.20;;
18857;SDS011;9558;50.178;8.370;2023-11-19T11:37:33;10.23;;;1.30;;
18857;SDS011;9558;50.178;8.370;2023-11-19T11:40:24;12.38;;;0.85;;
18857;SDS011;9558;50.178;8.370;2023-11-19T11:49:42;6.32;;;1.20;;
18857;SDS011;9558;50.178;8.370;2023-11-19T11:52:29;7.93;;;0.85;;
18857;SDS011;9558;50.178;8.370;2023-11-19T11:55:16;6.55;;;1.13;;
18857;SDS011;9558;50.178;8.370;2023-11-19T11:58:03;7.32;;;1.20;;
18857;SDS011;9558;50.178;8.370;2023-11-19T12:00:51;4.75;;;1.50;;
18857;SDS011;9558;50.178;8.370;2023-11-19T12:03:41;6.65;;;0.82;;
18857;SDS011;9558;50.178;8.370;2023-11-19T12:06:28;11.82;;;0.85;;
18857;SDS011;9558;50.178;8.370;2023-11-19T12:09:15;7.13;;;0.70;;
18857;SDS011;9558;50.178;8.370;2023-11-19T12:12:07;8.35;;;0.90;;
18857;SDS011;9558;50.178;8.370;2023-11-19T12:15:07;3.10;;;0.63;;
18857;SDS011;9558;50.178;8.370;2023-11-19T12:18:01;12.05;;;1.30;;
18857;SDS011;9558;50.178;8.370;2023-11-19T12:20:47;3.17;;;1.35;;
18857;SDS011;9558;50.178;8.370;2023-11-19T12:23:34;2.97;;;0.63;;
18857;SDS011;9558;50.178;8.370;2023-11-19T12:26:30;6.82;;;1.10;;
18857;SDS011;9558;50.178;8.370;2023-11-19T12:29:18;9.45;;;1.00;;
18857;SDS011;9558;50.178;8.370;2023-11-19T12:32:06;6.82;;;1.17;;
18857;SDS011;9558;50.178;8.370;2023-11-19T12:34:54;8.00;;;1.05;;
18857;SDS011;9558;50.178;8.370;2023-11-19T12:37:41;3.30;;;0.70;;
18857;SDS011;9558;50.178;8.370;2023-11-19T12:40:29;7.72;;;1.00;;
18857;SDS011;9558;50.178;8.370;2023-11-19T12:43:21;2.22;;;0.47;;
18857;SDS011;9558;50.178;8.370;2023-11-19T12:46:16;6.78;;;0.70;;
18857;SDS011;9558;50.178;8.370;2023-11-19T12:49:03;5.20;;;0.60;;
18857;SDS011;9558;50.178;8.370;2023-11-19T12:51:52;6.97;;;0.80;;
18857;SDS011;9558;50.178;8.370;2023-11-19T12:54:39;2.75;;;0.50;;
18857;SDS011;9558;50.178;8.370;2023-11-19T12:57:35;7.72;;;0.82;;
18857;SDS011;9558;50.178;8.370;2023-11-19T13:00:24;4.95;;;0.82;;
18857;SDS011;9558;50.178;8.370;2023-11-19T13:03:11;4.90;;;0.57;;
18857;SDS011;9558;50.178;8.370;2023-11-19T13:06:02;6.25;;;1.00;;
18857;SDS011;9558;50.178;8.370;2023-11-19T13:08:51;3.63;;;0.30;;
18857;SDS011;9558;50.178;8.370;2023-11-19T13:11:40;6.32;;;0.90;;
18857;SDS011;9558;50.178;8.370;2023-11-19T13:14:35;4.90;;;0.65;;
18857;SDS011;9558;50.178;8.370;2023-11-19T13:17:23;4.20;;;0.68;;
18857;SDS011;9558;50.178;8.370;2023-11-19T13:20:10;4.60;;;0.70;;
18857;SDS011;9558;50.178;8.370;2023-11-19T13:23:00;5.22;;;1.00;;
18857;SDS011;9558;50.178;8.370;2023-11-19T13:25:48;8.00;;;1.30;;
18857;SDS011;9558;50.178;8.370;2023-11-19T13:28:35;10.32;;;2.03;;
18857;SDS011;9558;50.178;8.370;2023-11-19T13:31:22;5.82;;;1.17;;
18857;SDS011;9558;50.178;8.370;2023-11-19T13:34:09;5.32;;;1.10;;
18857;SDS011;9558;50.178;8.370;2023-11-19T13:36:55;12.98;;;1.42;;
18857;SDS011;9558;50.178;8.370;2023-11-19T13:39:42;6.15;;;0.73;;
18857;SDS011;9558;50.178;8.370;2023-11-19T13:42:31;8.88;;;0.82;;
18857;SDS011;9558;50.178;8.370;2023-11-19T13:45:18;12.27;;;1.40;;
18857;SDS011;9558;50.178;8.370;2023-11-19T13:48:06;3.40;;;0.63;;
18857;SDS011;9558;50.178;8.370;2023-11-19T13:50:53;4.38;;;0.73;;
18857;SDS011;9558;50.178;8.370;2023-11-19T13:53:39;6.93;;;0.57;;
18857;SDS011;9558;50.178;8.370;2023-11-19T13:56:27;6.00;;;1.27;;
18857;SDS011;9558;50.178;8.370;2023-11-19T13:59:15;7.88;;;0.80;;
18857;SDS011;9558;50.178;8.370;2023-11-19T14:02:01;3.78;;;0.70;;
18857;SDS011;9558;50.178;8.370;2023-11-19T14:04:48;2.85;;;0.55;;
18857;SDS011;9558;50.178;8.370;2023-11-19T14:07:35;7.90;;;0.47;;
18857;SDS011;9558;50.178;8.370;2023-11-19T14:10:22;2.13;;;0.50;;
18857;SDS011;9558;50.178;8.370;2023-11-19T14:13:09;3.58;;;0.68;;
18857;SDS011;9558;50.178;8.370;2023-11-19T14:15:58;5.55;;;0.55;;
18857;SDS011;9558;50.178;8.370;2023-11-19T14:18:45;3.42;;;0.60;;
18857;SDS011;9558;50.178;8.370;2023-11-19T14:21:34;9.30;;;1.05;;
18857;SDS011;9558;50.178;8.370;2023-11-19T14:24:21;2.50;;;0.57;;
18857;SDS011;9558;50.178;8.370;2023-11-19T14:27:08;6.93;;;0.50;;
18857;SDS011;9558;50.178;8.370;2023-11-19T14:29:55;2.15;;;0.70;;
18857;SDS011;9558;50.178;8.370;2023-11-19T14:32:43;6.13;;;1.05;;
18857;SDS011;9558;50.178;8.370;2023-11-19T14:35:31;4.35;;;0.80;;
18857;SDS011;9558;50.178;8.370;2023-11-19T14:38:19;7.85;;;1.10;;
18857;SDS011;9558;50.178;8.370;2023-11-19T14:41:06;3.30;;;0.45;;
18857;SDS011;9558;50.178;8.370;2023-11-19T14:43:53;7.32;;;1.08;;
18857;SDS011;9558;50.178;8.370;2023-11-19T14:46:39;5.70;;;1.20;;
18857;SDS011;9558;50.178;8.370;2023-11-19T14:49:27;3.55;;;0.57;;
18857;SDS011;9558;50.178;8.370;2023-11-19T14:52:14;4.97;;;0.47;;
18857;SDS011;9558;50.178;8.370;2023-11-19T14:55:01;6.05;;;0.73;;
18857;SDS011;9558;50.178;8.370;2023-11-19T14:57:48;6.78;;;0.90;;
18857;SDS011;9558;50.178;8.370;2023-11-19T15:00:35;1.45;;;0.65;;
18857;SDS011;9558;50.178;8.370;2023-11-19T15:03:22;8.68;;;1.17;;
18857;SDS011;9558;50.178;8.370;2023-11-19T15:06:10;3.72;;;0.80;;
18857;SDS011;9558;50.178;8.370;2023-11-19T15:08:57;5.72;;;0.32;;
18857;SDS011;9558;50.178;8.370;2023-11-19T15:11:44;8.10;;;0.70;;
18857;SDS011;9558;50.178;8.370;2023-11-19T15:14:31;5.05;;;0.90;;
18857;SDS011;9558;50.178;8.370;2023-11-19T15:17:18;5.97;;;0.60;;
18857;SDS011;9558;50.178;8.370;2023-11-19T15:20:05;5.85;;;0.88;;
18857;SDS011;9558;50.178;8.370;2023-11-19T15:22:54;4.80;;;0.68;;
18857;SDS011;9558;50.178;8.370;2023-11-19T15:25:41;7.15;;;0.70;;
18857;SDS011;9558;50.178;8.370;2023-11-19T15:28:27;2.92;;;0.50;;
18857;SDS011;9558;50.178;8.370;2023-11-19T15:31:14;4.57;;;0.80;;
18857;SDS011;9558;50.178;8.370;2023-11-19T15:34:01;10.05;;;0.70;;
18857;SDS011;9558;50.178;8.370;2023-11-19T15:36:49;5.30;;;0.70;;
18857;SDS011;9558;50.178;8.370;2023-11-19T15:39:43;3.50;;;0.70;;
18857;SDS011;9558;50.178;8.370;2023-11-19T15:42:33;5.85;;;1.13;;
18857;SDS011;9558;50.178;8.370;2023-11-19T15:45:20;2.17;;;0.68;;
18857;SDS011;9558;50.178;8.370;2023-11-19T15:48:06;3.65;;;0.60;;
18857;SDS011;9558;50.178;8.370;2023-11-19T15:50:53;4.22;;;1.05;;
18857;SDS011;9558;50.178;8.370;2023-11-19T15:53:40;4.25;;;0.80;;
18857;SDS011;9558;50.178;8.370;2023-11-19T15:56:29;7.07;;;0.77;;
18857;SDS011;9558;50.178;8.370;2023-11-19T15:59:16;5.47;;;0.82;;
18857;SDS011;9558;50.178;8.370;2023-11-19T16:02:03;3.70;;;0.45;;
18857;SDS011;9558;50.178;8.370;2023-11-19T16:04:50;4.50;;;0.75;;
18857;SDS011;9558;50.178;8.370;2023-11-19T16:07:37;6.25;;;0.82;;
18857;SDS011;9558;50.178;8.370;2023-11-19T16:10:24;7.53;;;0.70;;
18857;SDS011;9558;50.178;8.370;2023-11-19T16:13:12;13.73;;;1.00;;
18857;SDS011;9558;50.178;8.370;2023-11-19T16:15:59;7.18;;;1.42;;
18857;SDS011;9558;50.178;8.370;2023-11-19T16:18:46;8.50;;;1.80;;
18857;SDS011;9558;50.178;8.370;2023-11-19T16:21:33;12.88;;;2.20;;
18857;SDS011;9558;50.178;8.370;2023-11-19T16:24:20;11.30;;;1.80;;
18857;SDS011;9558;50.178;8.370;2023-11-19T16:27:06;8.73;;;2.47;;
18857;SDS011;9558;50.178;8.370;2023-11-19T16:29:55;5.93;;;1.73;;
18857;SDS011;9558;50.178;8.370;2023-11-19T16:32:48;5.45;;;1.63;;
18857;SDS011;9558;50.178;8.370;2023-11-19T16:35:37;10.52;;;2.58;;
18857;SDS011;9558;50.178;8.370;2023-11-19T16:38:24;9.10;;;2.63;;
18857;SDS011;9558;50.178;8.370;2023-11-19T16:41:12;8.77;;;2.22;;
18857;SDS011;9558;50.178;8.370;2023-11-19T16:44:01;12.02;;;1.85;;
18857;SDS011;9558;50.178;8.370;2023-11-19T16:46:49;5.85;;;1.48;;
18857;SDS011;9558;50.178;8.370;2023-11-19T16:49:36;11.55;;;5.57;;
18857;SDS011;9558;50.178;8.370;2023-11-19T16:52:23;7.55;;;3.35;;
18857;SDS011;9558;50.178;8.370;2023-11-19T16:55:10;11.55;;;1.50;;
18857;SDS011;9558;50.178;8.370;2023-11-19T16:57:57;7.28;;;1.63;;
18857;SDS011;9558;50.178;8.370;2023-11-19T17:00:45;5.88;;;1.33;;
18857;SDS011;9558;50.178;8.370;2023-11-19T17:03:33;7.75;;;1.42;;
18857;SDS011;9558;50.178;8.370;2023-11-19T17:06:20;11.10;;;3.42;;
18857;SDS011;9558;50.178;8.370;2023-11-19T17:09:07;5.22;;;0.82;;
18857;SDS011;9558;50.178;8.370;2023-11-19T17:11:57;8.18;;;1.33;;
18857;SDS011;9558;50.178;8.370;2023-11-19T17:14:44;5.25;;;1.00;;
18857;SDS011;9558;50.178;8.370;2023-11-19T17:17:31;4.18;;;0.73;;
18857;SDS011;9558;50.178;8.370;2023-11-19T17:20:21;5.68;;;1.30;;
18857;SDS011;9558;50.178;8.370;2023-11-19T17:23:08;4.50;;;1.00;;
18857;SDS011;9558;50.178;8.370;2023-11-19T17:25:55;2.28;;;0.30;;
18857;SDS011;9558;50.178;8.370;2023-11-19T17:28:43;5.20;;;0.90;;
18857;SDS011;9558;50.178;8.370;2023-11-19T17:31:32;3.35;;;0.60;;
18857;SDS011;9558;50.178;8.370;2023-11-19T17:34:19;3.72;;;0.73;;
18857;SDS011;9558;50.178;8.370;2023-11-19T17:37:09;2.25;;;0.70;;
18857;SDS011;9558;50.178;8.370;2023-11-19T17:39:55;4.57;;;0.85;;
18857;SDS011;9558;50.178;8.370;2023-11-19T17:42:42;5.25;;;1.23;;
18857;SDS011;9558;50.178;8.370;2023-11-19T17:45:29;9.00;;;1.10;;
18857;SDS011;9558;50.178;8.370;2023-11-19T17:48:16;10.48;;;0.75;;
18857;SDS011;9558;50.178;8.370;2023-11-19T17:51:03;4.20;;;0.73;;
18857;SDS011;9558;50.178;8.370;2023-11-19T17:53:53;7.90;;;0.88;;
18857;SDS011;9558;50.178;8.370;2023-11-19T17:56:40;8.43;;;0.90;;
18857;SDS011;9558;50.178;8.370;2023-11-19T17:59:27;9.75;;;0.85;;
18857;SDS011;9558;50.178;8.370;2023-11-19T18:02:14;3.70;;;0.77;;
18857;SDS011;9558;50.178;8.370;2023-11-19T18:05:01;8.75;;;1.05;;
18857;SDS011;9558;50.178;8.370;2023-11-19T18:07:48;12.70;;;0.95;;
18857;SDS011;9558;50.178;8.370;2023-11-19T18:10:36;7.03;;;0.70;;
18857;SDS011;9558;50.178;8.370;2023-11-19T18:13:23;3.97;;;1.27;;
18857;SDS011;9558;50.178;8.370;2023-11-19T18:16:10;6.72;;;0.73;;
18857;SDS011;9558;50.178;8.370;2023-11-19T18:19:00;7.68;;;1.55;;
18857;SDS011;9558;50.178;8.370;2023-11-19T18:21:47;4.45;;;0.90;;
18857;SDS011;9558;50.178;8.370;2023-11-19T18:24:34;9.75;;;1.00;;
18857;SDS011;9558;50.178;8.370;2023-11-19T18:27:23;2.92;;;0.93;;
18857;SDS011;9558;50.178;8.370;2023-11-19T18:30:10;6.53;;;1.73;;
18857;SDS011;9558;50.178;8.370;2023-11-19T18:32:59;5.28;;;0.95;;
18857;SDS011;9558;50.178;8.370;2023-11-19T18:35:45;4.57;;;0.82;;
18857;SDS011;9558;50.178;8.370;2023-11-19T18:38:32;8.05;;;0.70;;
18857;SDS011;9558;50.178;8.370;2023-11-19T18:41:22;8.85;;;1.17;;
18857;SDS011;9558;50.178;8.370;2023-11-19T18:44:10;5.32;;;0.93;;
18857;SDS011;9558;50.178;8.370;2023-11-19T18:46:58;5.82;;;1.02;;
18857;SDS011;9558;50.178;8.370;2023-11-19T18:49:46;7.70;;;1.20;;
18857;SDS011;9558;50.178;8.370;2023-11-19T18:52:34;6.38;;;0.82;;